Time;durP1;ratioP1;P1;durP2;ratioP2;P2;SDS_P1;SDS_P2;PMS_P1;PMS_P2;Temp;Humidity;BMP_temperature;BMP_pressure;BME280_temperature;BME280_humidity;BME280_pressure;Samples;Min_cycle;Max_cycle;Signal;HPM_P1;HPM_P2
2023/04/21 16:58:20;;;;;;;6.60;1.77;;;;;;;23.32;37.76;100335.53;5022284;27;3053671;-48
2023/04/21 17:00:47;;;;;;;2.75;1.55;;;;;;;24.03;35.61;100333.22;5110718;28;20065;-47
2023/04/21 17:03:15;;;;;;;7.22;2.75;;;;;;;24.47;34.49;100338.56;5110036;28;20042;-53
2023/04/21 17:05:42;;;;;;;7.47;2.00;;;;;;;24.87;33.95;100325.47;5110376;28;20053;-49
2023/04/21 17:08:10;;;;;;;4.03;2.00;;;;;;;25.06;33.41;100336.84;5110338;28;20111;-49
2023/04/21 17:10:37;;;;;;;4.35;1.98;;;;;;;25.24;32.89;100335.03;5110078;28;20077;-46
2023/04/21 17:13:06;;;;;;;1.98;1.50;;;;;;;25.38;32.93;100333.25;5110013;28;20092;-49
2023/04/21 17:15:34;;;;;;;8.32;1.65;;;;;;;25.52;32.40;100335.00;5110588;28;20063;-46
2023/04/21 17:18:01;;;;;;;4.35;2.15;;;;;;;25.54;32.51;100339.34;5109812;28;20028;-47
2023/04/21 17:20:29;;;;;;;4.05;2.20;;;;;;;25.53;32.44;100337.59;5075782;28;20027;-46
2023/04/21 17:22:59;;;;;;;4.40;1.67;;;;;;;25.53;32.28;100344.63;5109924;28;20066;-53
2023/04/21 17:25:26;;;;;;;5.20;1.52;;;;;;;25.55;32.32;100342.88;5110435;28;20015;-53
2023/04/21 17:27:53;;;;;;;5.78;1.75;;;;;;;25.56;32.27;100340.22;5109416;28;20028;-51
2023/04/21 17:30:22;;;;;;;3.33;1.50;;;;;;;25.62;32.09;100345.47;5091615;28;20473;-49
2023/04/21 17:32:49;;;;;;;2.60;1.60;;;;;;;25.54;32.05;100338.50;5110114;28;20040;-49
2023/04/21 17:35:16;;;;;;;3.47;1.73;;;;;;;25.49;32.00;100341.13;5110263;28;20027;-52
2023/04/21 17:37:45;;;;;;;6.00;1.75;;;;;;;25.48;32.16;100336.78;5109982;28;20110;-46
2023/04/21 17:40:13;;;;;;;4.25;1.73;;;;;;;25.51;32.10;100328.84;5109370;28;20024;-46
2023/04/21 17:42:42;;;;;;;3.45;2.00;;;;;;;25.56;31.94;100331.50;5109622;28;20023;-47
2023/04/21 17:45:11;;;;;;;4.80;1.55;;;;;;;25.49;32.19;100330.59;5110457;28;20056;-50
2023/04/21 17:47:39;;;;;;;2.70;1.60;;;;;;;25.45;32.37;100326.28;5109975;28;20034;-49
2023/04/21 17:50:10;;;;;;;3.25;1.80;;;;;;;25.47;32.15;100328.00;5108887;28;20118;-48
2023/04/21 17:52:40;;;;;;;4.47;1.77;;;;;;;25.55;32.09;100322.72;5113287;28;20030;-48
2023/04/21 17:55:08;;;;;;;5.30;1.80;;;;;;;25.58;31.90;100316.56;5109087;28;20115;-46
2023/04/21 17:57:37;;;;;;;2.33;1.50;;;;;;;25.60;31.97;100313.09;5087424;28;20051;-49
2023/04/21 18:00:06;;;;;;;5.45;1.63;;;;;;;25.56;32.06;100311.34;5108887;28;20024;-47
2023/04/21 18:02:35;;;;;;;4.72;1.60;;;;;;;25.51;32.40;100323.59;5108355;28;20042;-49
2023/04/21 18:05:03;;;;;;;4.32;1.85;;;;;;;25.57;32.11;100314.81;5112502;28;20028;-46
2023/04/21 18:07:32;;;;;;;4.93;1.77;;;;;;;25.55;32.29;100309.59;5107710;28;20469;-49
2023/04/21 18:10:00;;;;;;;4.70;2.30;;;;;;;25.54;32.25;100312.22;5094344;28;20031;-46
2023/04/21 18:12:27;;;;;;;3.30;2.03;;;;;;;25.47;32.00;100314.00;5095386;28;20478;-49
2023/04/21 18:14:54;;;;;;;3.28;1.65;;;;;;;25.44;32.33;100307.00;5094578;28;20119;-47
2023/04/21 18:17:22;;;;;;;3.20;1.70;;;;;;;25.49;32.39;100314.84;5098654;28;20111;-47
2023/04/21 18:19:49;;;;;;;6.75;2.08;;;;;;;25.57;32.42;100307.84;5094665;28;20073;-46
2023/04/21 18:22:17;;;;;;;4.10;1.90;;;;;;;25.53;32.43;100299.97;5094610;28;20107;-46
2023/04/21 18:24:44;;;;;;;4.03;2.22;;;;;;;25.47;32.24;100307.00;5094418;28;20024;-47
2023/04/21 18:27:12;;;;;;;1.90;1.40;;;;;;;25.43;33.00;100307.03;5094769;28;20381;-51
2023/04/21 18:29:39;;;;;;;5.20;1.80;;;;;;;25.48;32.53;100302.63;5095132;28;20030;-52
2023/04/21 18:32:07;;;;;;;4.75;1.83;;;;;;;25.48;32.56;100305.25;5094569;28;20028;-48
2023/04/21 18:34:34;;;;;;;6.05;2.33;;;;;;;25.57;32.75;100307.84;5094674;28;20095;-49
2023/04/21 18:37:01;;;;;;;2.50;1.40;;;;;;;25.55;32.65;100308.72;5076363;28;20043;-51
2023/04/21 18:39:30;;;;;;;2.17;1.45;;;;;;;25.48;33.16;100315.75;5094888;28;20031;-46
2023/04/21 18:41:59;;;;;;;7.13;1.98;;;;;;;25.52;32.75;100309.59;5098330;28;20035;-48
2023/04/21 18:44:27;;;;;;;4.53;2.00;;;;;;;25.56;33.00;100313.97;5075978;28;20078;-46
2023/04/21 18:46:57;;;;;;;3.58;2.00;;;;;;;25.58;32.97;100313.94;5094109;28;20428;-47
2023/04/21 18:49:25;;;;;;;4.85;2.22;;;;;;;25.57;33.20;100302.59;5094087;28;20024;-49
2023/04/21 18:51:54;;;;;;;4.15;1.70;;;;;;;25.57;33.52;100307.84;5079879;28;20032;-49
2023/04/21 18:54:22;;;;;;;2.95;1.70;;;;;;;25.58;33.31;100319.19;5093818;28;20420;-50
2023/04/21 18:56:50;;;;;;;2.92;1.88;;;;;;;25.61;33.73;100316.56;5093855;28;20067;-46
2023/04/21 18:59:21;;;;;;;2.58;1.85;;;;;;;25.69;33.60;100319.16;5094109;28;20080;-48
2023/04/21 19:01:49;;;;;;;3.97;1.80;;;;;;;25.67;33.92;100313.03;5093686;28;20116;-46
2023/04/21 19:04:18;;;;;;;3.55;1.90;;;;;;;25.66;33.77;100301.66;5093705;28;20106;-47
2023/04/21 19:06:47;;;;;;;5.65;2.00;;;;;;;25.67;33.92;100306.03;5093966;28;20032;-46
2023/04/21 19:09:15;;;;;;;3.80;1.63;;;;;;;25.66;33.74;100304.28;5094374;28;20024;-45
2023/04/21 19:11:44;;;;;;;5.10;2.22;;;;;;;25.65;33.88;100307.81;5076349;28;20028;-46
2023/04/21 19:14:13;;;;;;;4.57;1.60;;;;;;;25.65;33.78;100306.94;5094534;28;20051;-46
2023/04/21 19:16:41;;;;;;;6.35;1.60;;;;;;;25.69;33.87;100311.28;5094423;28;20035;-47
2023/04/21 19:19:11;;;;;;;5.05;1.70;;;;;;;25.67;33.87;100310.41;5094430;28;20028;-47
2023/04/21 19:21:39;;;;;;;5.25;1.50;;;;;;;25.63;33.70;100309.56;5093489;28;20028;-47
2023/04/21 19:24:08;;;;;;;4.70;2.00;;;;;;;25.65;34.06;100292.03;5094422;28;20031;-46
2023/04/21 19:26:37;;;;;;;3.42;1.48;;;;;;;25.68;33.84;100289.41;5094427;28;20032;-46
2023/04/21 19:29:10;;;;;;;3.42;1.63;;;;;;;25.67;33.79;100292.91;5076619;28;20020;-47
2023/04/21 19:31:39;;;;;;;2.17;1.40;;;;;;;25.64;34.12;100298.16;5094545;28;20111;-46
2023/04/21 19:34:08;;;;;;;2.38;1.85;;;;;;;25.63;33.73;100299.06;5094133;28;20028;-46
2023/04/21 19:36:37;;;;;;;9.07;2.05;;;;;;;25.63;33.91;100299.94;5094312;28;20036;-45
2023/04/21 19:39:06;;;;;;;1.77;1.30;;;;;;;25.66;33.83;100301.66;5093936;28;20105;-46
2023/04/21 19:41:35;;;;;;;5.32;1.50;;;;;;;25.64;33.75;100300.81;5094306;28;20821;-45
2023/04/21 19:44:04;;;;;;;8.85;1.70;;;;;;;25.61;33.92;100306.94;5094128;28;20454;-45
2023/04/21 19:46:33;;;;;;;1.98;1.17;;;;;;;25.60;34.12;100305.19;5094321;28;20032;-46
2023/04/21 19:49:01;;;;;;;2.60;1.40;;;;;;;25.65;33.78;100299.91;5093963;28;20032;-46
2023/04/21 19:51:30;;;;;;;3.78;1.30;;;;;;;25.62;33.89;100302.56;5076081;28;20362;-46
2023/04/21 19:53:59;;;;;;;4.47;1.50;;;;;;;25.64;33.71;100308.69;5093787;28;20084;-48
2023/04/21 19:56:28;;;;;;;2.78;1.27;;;;;;;25.62;33.98;100307.81;5093376;28;20024;-46
2023/04/21 19:58:57;;;;;;;2.03;1.42;;;;;;;25.62;33.67;100308.69;5092670;28;20032;-46
2023/04/21 20:01:28;;;;;;;2.50;1.40;;;;;;;25.66;33.76;100306.91;5075631;28;20032;-45
2023/04/21 20:03:57;;;;;;;2.40;1.73;;;;;;;25.63;33.70;100305.19;5093641;28;20111;-45
2023/04/21 20:06:26;;;;;;;1.95;1.30;;;;;;;25.61;33.78;100314.84;5093457;28;20034;-45
2023/04/21 20:08:53;;;;;;;2.85;1.33;;;;;;;25.66;33.56;100314.81;5090897;28;20566;-53
2023/04/21 20:11:20;;;;;;;5.68;1.50;;;;;;;25.54;33.86;100305.22;5091986;28;20020;-49
2023/04/21 20:13:48;;;;;;;1.92;1.30;;;;;;;25.54;33.61;100309.59;5093605;28;20469;-51
2023/04/21 20:16:17;;;;;;;5.18;1.73;;;;;;;25.46;33.83;100315.75;5093472;28;20031;-53
2023/04/21 20:18:45;;;;;;;4.07;1.50;;;;;;;25.49;34.06;100314.84;5093529;28;20028;-45
2023/04/21 20:21:13;;;;;;;3.00;1.25;;;;;;;25.48;33.98;100313.13;5093268;28;20039;-51
2023/04/21 20:23:41;;;;;;;2.70;1.40;;;;;;;25.42;33.82;100314.00;5093727;28;20031;-54
2023/04/21 20:26:10;;;;;;;3.40;1.42;;;;;;;25.47;34.07;100312.25;5093311;28;20055;-50
